sensor_id;sensor_type;location;lat;lon;timestamp;P1;durP1;ratioP1;P2;durP2;ratioP2
51216;SDS011;37283;49.760;8.648;2023-05-10T00:01:11;2.95;;;1.00;;
51216;SDS011;37283;49.760;8.648;2023-05-10T00:03:37;3.05;;;1.13;;
51216;SDS011;37283;49.760;8.648;2023-05-10T00:06:07;2.75;;;1.10;;
51216;SDS011;37283;49.760;8.648;2023-05-10T00:08:34;1.60;;;1.10;;
51216;SDS011;37283;49.760;8.648;2023-05-10T00:11:01;2.00;;;0.90;;
51216;SDS011;37283;49.760;8.648;2023-05-10T00:13:27;3.90;;;1.08;;
51216;SDS011;37283;49.760;8.648;2023-05-10T00:15:54;1.35;;;1.10;;
51216;SDS011;37283;49.760;8.648;2023-05-10T00:18:20;1.52;;;1.10;;
51216;SDS011;37283;49.760;8.648;2023-05-10T00:20:47;1.58;;;1.23;;
51216;SDS011;37283;49.760;8.648;2023-05-10T00:23:14;2.25;;;1.20;;
51216;SDS011;37283;49.760;8.648;2023-05-10T00:25:41;3.15;;;1.25;;
51216;SDS011;37283;49.760;8.648;2023-05-10T00:28:07;2.78;;;1.10;;
51216;SDS011;37283;49.760;8.648;2023-05-10T00:30:36;2.33;;;1.20;;
51216;SDS011;37283;49.760;8.648;2023-05-10T00:33:02;1.20;;;1.10;;
51216;SDS011;37283;49.760;8.648;2023-05-10T00:35:29;2.03;;;1.10;;
51216;SDS011;37283;49.760;8.648;2023-05-10T00:37:56;2.38;;;1.30;;
51216;SDS011;37283;49.760;8.648;2023-05-10T00:40:22;3.00;;;1.40;;
51216;SDS011;37283;49.760;8.648;2023-05-10T00:42:53;3.38;;;1.30;;
51216;SDS011;37283;49.760;8.648;2023-05-10T00:45:20;2.55;;;1.60;;
51216;SDS011;37283;49.760;8.648;2023-05-10T00:47:47;1.75;;;1.50;;
51216;SDS011;37283;49.760;8.648;2023-05-10T00:50:14;4.40;;;1.63;;
51216;SDS011;37283;49.760;8.648;2023-05-10T00:52:41;2.38;;;1.67;;
51216;SDS011;37283;49.760;8.648;2023-05-10T00:55:09;4.38;;;1.50;;
51216;SDS011;37283;49.760;8.648;2023-05-10T00:57:36;2.92;;;1.65;;
51216;SDS011;37283;49.760;8.648;2023-05-10T01:00:05;1.67;;;1.33;;
51216;SDS011;37283;49.760;8.648;2023-05-10T01:02:33;2.50;;;1.50;;
51216;SDS011;37283;49.760;8.648;2023-05-10T01:05:01;2.58;;;1.60;;
51216;SDS011;37283;49.760;8.648;2023-05-10T01:07:29;2.90;;;1.23;;
51216;SDS011;37283;49.760;8.648;2023-05-10T01:09:56;2.20;;;1.30;;
51216;SDS011;37283;49.760;8.648;2023-05-10T01:12:22;2.60;;;1.33;;
51216;SDS011;37283;49.760;8.648;2023-05-10T01:14:51;1.88;;;1.50;;
51216;SDS011;37283;49.760;8.648;2023-05-10T01:17:18;2.08;;;1.48;;
51216;SDS011;37283;49.760;8.648;2023-05-10T01:19:45;1.35;;;1.25;;
51216;SDS011;37283;49.760;8.648;2023-05-10T01:22:22;1.73;;;1.15;;
51216;SDS011;37283;49.760;8.648;2023-05-10T01:28:13;1.63;;;1.23;;
51216;SDS011;37283;49.760;8.648;2023-05-10T01:36:35;2.90;;;1.00;;
51216;SDS011;37283;49.760;8.648;2023-05-10T01:44:23;1.42;;;0.95;;
51216;SDS011;37283;49.760;8.648;2023-05-10T01:46:57;4.15;;;1.25;;
51216;SDS011;37283;49.760;8.648;2023-05-10T01:49:32;2.33;;;1.10;;
51216;SDS011;37283;49.760;8.648;2023-05-10T01:52:12;1.80;;;1.02;;
51216;SDS011;37283;49.760;8.648;2023-05-10T01:54:42;1.88;;;1.00;;
51216;SDS011;37283;49.760;8.648;2023-05-10T01:57:12;2.00;;;0.90;;
51216;SDS011;37283;49.760;8.648;2023-05-10T01:59:40;3.38;;;0.80;;
51216;SDS011;37283;49.760;8.648;2023-05-10T02:02:10;1.83;;;0.90;;
51216;SDS011;37283;49.760;8.648;2023-05-10T02:04:38;1.73;;;1.00;;
51216;SDS011;37283;49.760;8.648;2023-05-10T02:07:06;1.98;;;1.33;;
51216;SDS011;37283;49.760;8.648;2023-05-10T02:09:33;2.10;;;1.05;;
51216;SDS011;37283;49.760;8.648;2023-05-10T02:12:01;4.53;;;1.10;;
51216;SDS011;37283;49.760;8.648;2023-05-10T02:14:30;2.38;;;1.08;;
51216;SDS011;37283;49.760;8.648;2023-05-10T02:16:58;2.35;;;0.85;;
51216;SDS011;37283;49.760;8.648;2023-05-10T02:19:26;1.20;;;1.10;;
51216;SDS011;37283;49.760;8.648;2023-05-10T02:21:55;2.15;;;1.20;;
51216;SDS011;37283;49.760;8.648;2023-05-10T02:24:23;2.80;;;1.50;;
51216;SDS011;37283;49.760;8.648;2023-05-10T02:26:51;4.72;;;1.30;;
51216;SDS011;37283;49.760;8.648;2023-05-10T02:29:20;4.18;;;1.15;;
51216;SDS011;37283;49.760;8.648;2023-05-10T02:31:47;1.70;;;1.17;;
51216;SDS011;37283;49.760;8.648;2023-05-10T02:34:14;2.17;;;1.25;;
51216;SDS011;37283;49.760;8.648;2023-05-10T02:36:41;1.70;;;1.10;;
51216;SDS011;37283;49.760;8.648;2023-05-10T02:39:08;4.97;;;1.33;;
51216;SDS011;37283;49.760;8.648;2023-05-10T02:41:39;5.57;;;1.20;;
51216;SDS011;37283;49.760;8.648;2023-05-10T02:44:07;5.03;;;0.93;;
51216;SDS011;37283;49.760;8.648;2023-05-10T02:46:35;1.40;;;1.00;;
51216;SDS011;37283;49.760;8.648;2023-05-10T02:49:03;3.22;;;0.98;;
51216;SDS011;37283;49.760;8.648;2023-05-10T02:51:31;1.10;;;1.00;;
51216;SDS011;37283;49.760;8.648;2023-05-10T02:54:29;1.05;;;0.80;;
51216;SDS011;37283;49.760;8.648;2023-05-10T02:56:47;1.40;;;0.90;;
51216;SDS011;37283;49.760;8.648;2023-05-10T02:59:17;4.72;;;0.88;;
51216;SDS011;37283;49.760;8.648;2023-05-10T03:01:43;2.17;;;0.80;;
51216;SDS011;37283;49.760;8.648;2023-05-10T03:04:11;3.25;;;0.90;;
51216;SDS011;37283;49.760;8.648;2023-05-10T03:06:38;2.40;;;0.90;;
51216;SDS011;37283;49.760;8.648;2023-05-10T03:09:04;0.85;;;0.75;;
51216;SDS011;37283;49.760;8.648;2023-05-10T03:17:32;1.83;;;1.00;;
51216;SDS011;37283;49.760;8.648;2023-05-10T03:20:03;4.97;;;1.40;;
51216;SDS011;37283;49.760;8.648;2023-05-10T03:22:37;1.23;;;1.10;;
51216;SDS011;37283;49.760;8.648;2023-05-10T03:25:06;2.92;;;1.17;;
51216;SDS011;37283;49.760;8.648;2023-05-10T03:27:34;3.78;;;1.00;;
51216;SDS011;37283;49.760;8.648;2023-05-10T03:30:02;1.05;;;0.93;;
51216;SDS011;37283;49.760;8.648;2023-05-10T03:32:31;2.78;;;1.20;;
51216;SDS011;37283;49.760;8.648;2023-05-10T03:35:00;2.13;;;1.30;;
51216;SDS011;37283;49.760;8.648;2023-05-10T03:37:28;3.63;;;1.25;;
51216;SDS011;37283;49.760;8.648;2023-05-10T03:39:55;7.95;;;1.80;;
51216;SDS011;37283;49.760;8.648;2023-05-10T03:42:24;3.47;;;1.90;;
51216;SDS011;37283;49.760;8.648;2023-05-10T03:44:51;3.33;;;2.00;;
51216;SDS011;37283;49.760;8.648;2023-05-10T03:47:17;4.72;;;1.98;;
51216;SDS011;37283;49.760;8.648;2023-05-10T03:49:44;3.15;;;2.00;;
51216;SDS011;37283;49.760;8.648;2023-05-10T03:52:11;3.90;;;2.00;;
51216;SDS011;37283;49.760;8.648;2023-05-10T03:54:38;3.25;;;1.95;;
51216;SDS011;37283;49.760;8.648;2023-05-10T03:57:04;4.40;;;2.00;;
51216;SDS011;37283;49.760;8.648;2023-05-10T03:59:31;3.17;;;2.20;;
51216;SDS011;37283;49.760;8.648;2023-05-10T04:01:58;4.00;;;2.60;;
51216;SDS011;37283;49.760;8.648;2023-05-10T04:04:24;3.90;;;2.45;;
51216;SDS011;37283;49.760;8.648;2023-05-10T04:06:51;7.22;;;2.58;;
51216;SDS011;37283;49.760;8.648;2023-05-10T04:09:18;4.28;;;2.38;;
51216;SDS011;37283;49.760;8.648;2023-05-10T04:11:47;6.95;;;2.55;;
51216;SDS011;37283;49.760;8.648;2023-05-10T04:14:14;6.20;;;2.50;;
51216;SDS011;37283;49.760;8.648;2023-05-10T04:16:40;3.50;;;2.17;;
51216;SDS011;37283;49.760;8.648;2023-05-10T04:19:07;4.00;;;2.08;;
51216;SDS011;37283;49.760;8.648;2023-05-10T04:21:34;5.43;;;2.33;;
51216;SDS011;37283;49.760;8.648;2023-05-10T04:24:00;3.03;;;2.08;;
51216;SDS011;37283;49.760;8.648;2023-05-10T04:26:26;6.15;;;2.40;;
51216;SDS011;37283;49.760;8.648;2023-05-10T04:28:53;5.15;;;2.00;;
51216;SDS011;37283;49.760;8.648;2023-05-10T04:31:20;5.18;;;1.70;;
51216;SDS011;37283;49.760;8.648;2023-05-10T04:33:47;4.47;;;1.67;;
51216;SDS011;37283;49.760;8.648;2023-05-10T04:36:14;3.78;;;1.95;;
51216;SDS011;37283;49.760;8.648;2023-05-10T04:38:40;3.33;;;1.80;;
51216;SDS011;37283;49.760;8.648;2023-05-10T04:41:07;2.42;;;1.60;;
51216;SDS011;37283;49.760;8.648;2023-05-10T04:43:35;3.00;;;1.80;;
51216;SDS011;37283;49.760;8.648;2023-05-10T04:46:02;3.55;;;1.83;;
51216;SDS011;37283;49.760;8.648;2023-05-10T04:48:29;3.80;;;1.70;;
51216;SDS011;37283;49.760;8.648;2023-05-10T04:50:55;4.65;;;1.50;;
51216;SDS011;37283;49.760;8.648;2023-05-10T04:53:22;4.75;;;1.70;;
51216;SDS011;37283;49.760;8.648;2023-05-10T04:55:49;1.63;;;1.50;;
51216;SDS011;37283;49.760;8.648;2023-05-10T04:58:15;5.45;;;1.80;;
51216;SDS011;37283;49.760;8.648;2023-05-10T05:00:42;1.95;;;1.45;;
51216;SDS011;37283;49.760;8.648;2023-05-10T05:03:08;4.82;;;1.88;;
51216;SDS011;37283;49.760;8.648;2023-05-10T05:05:36;4.35;;;1.65;;
51216;SDS011;37283;49.760;8.648;2023-05-10T05:08:02;2.75;;;1.73;;
51216;SDS011;37283;49.760;8.648;2023-05-10T05:10:29;2.85;;;1.65;;
51216;SDS011;37283;49.760;8.648;2023-05-10T05:12:55;5.00;;;1.80;;
51216;SDS011;37283;49.760;8.648;2023-05-10T05:15:22;5.20;;;1.80;;
51216;SDS011;37283;49.760;8.648;2023-05-10T05:17:48;3.92;;;1.48;;
51216;SDS011;37283;49.760;8.648;2023-05-10T05:20:15;3.95;;;1.80;;
51216;SDS011;37283;49.760;8.648;2023-05-10T05:22:42;5.80;;;2.20;;
51216;SDS011;37283;49.760;8.648;2023-05-10T05:25:09;4.65;;;1.95;;
51216;SDS011;37283;49.760;8.648;2023-05-10T05:27:35;3.63;;;1.80;;
51216;SDS011;37283;49.760;8.648;2023-05-10T05:30:01;4.57;;;2.08;;
51216;SDS011;37283;49.760;8.648;2023-05-10T05:32:28;6.95;;;2.55;;
51216;SDS011;37283;49.760;8.648;2023-05-10T05:34:54;6.63;;;2.10;;
51216;SDS011;37283;49.760;8.648;2023-05-10T05:37:21;5.40;;;2.00;;
51216;SDS011;37283;49.760;8.648;2023-05-10T05:39:48;6.28;;;2.13;;
51216;SDS011;37283;49.760;8.648;2023-05-10T05:42:15;5.13;;;1.98;;
51216;SDS011;37283;49.760;8.648;2023-05-10T05:44:43;4.68;;;1.75;;
51216;SDS011;37283;49.760;8.648;2023-05-10T05:47:10;4.18;;;1.98;;
51216;SDS011;37283;49.760;8.648;2023-05-10T05:49:36;7.57;;;2.20;;
51216;SDS011;37283;49.760;8.648;2023-05-10T05:52:03;3.95;;;1.88;;
51216;SDS011;37283;49.760;8.648;2023-05-10T05:54:30;2.92;;;1.55;;
51216;SDS011;37283;49.760;8.648;2023-05-10T05:56:57;2.40;;;1.52;;
51216;SDS011;37283;49.760;8.648;2023-05-10T06:01:53;5.22;;;1.65;;
51216;SDS011;37283;49.760;8.648;2023-05-10T06:04:20;3.75;;;2.15;;
51216;SDS011;37283;49.760;8.648;2023-05-10T06:06:49;4.82;;;1.60;;
51216;SDS011;37283;49.760;8.648;2023-05-10T06:09:16;5.35;;;1.50;;
51216;SDS011;37283;49.760;8.648;2023-05-10T06:11:42;3.65;;;1.80;;
51216;SDS011;37283;49.760;8.648;2023-05-10T06:14:09;3.17;;;2.10;;
51216;SDS011;37283;49.760;8.648;2023-05-10T06:16:36;5.15;;;2.30;;
51216;SDS011;37283;49.760;8.648;2023-05-10T06:19:02;4.45;;;2.28;;
51216;SDS011;37283;49.760;8.648;2023-05-10T06:21:29;3.95;;;2.60;;
51216;SDS011;37283;49.760;8.648;2023-05-10T06:23:56;4.13;;;3.00;;
51216;SDS011;37283;49.760;8.648;2023-05-10T06:26:22;5.25;;;2.90;;
51216;SDS011;37283;49.760;8.648;2023-05-10T06:28:49;4.60;;;2.83;;
51216;SDS011;37283;49.760;8.648;2023-05-10T06:31:15;4.65;;;2.83;;
51216;SDS011;37283;49.760;8.648;2023-05-10T06:33:42;5.65;;;2.90;;
51216;SDS011;37283;49.760;8.648;2023-05-10T06:36:08;3.63;;;3.10;;
51216;SDS011;37283;49.760;8.648;2023-05-10T06:38:35;6.25;;;3.00;;
51216;SDS011;37283;49.760;8.648;2023-05-10T06:41:01;3.22;;;2.88;;
51216;SDS011;37283;49.760;8.648;2023-05-10T06:43:28;4.30;;;2.95;;
51216;SDS011;37283;49.760;8.648;2023-05-10T06:45:55;4.57;;;2.80;;
51216;SDS011;37283;49.760;8.648;2023-05-10T06:48:22;4.13;;;2.85;;
51216;SDS011;37283;49.760;8.648;2023-05-10T06:50:48;4.38;;;2.60;;
51216;SDS011;37283;49.760;8.648;2023-05-10T06:53:15;5.65;;;2.20;;
51216;SDS011;37283;49.760;8.648;2023-05-10T06:55:41;5.28;;;2.30;;
51216;SDS011;37283;49.760;8.648;2023-05-10T06:58:08;4.40;;;2.55;;
51216;SDS011;37283;49.760;8.648;2023-05-10T07:00:34;4.78;;;2.55;;
51216;SDS011;37283;49.760;8.648;2023-05-10T07:03:01;3.65;;;2.50;;
51216;SDS011;37283;49.760;8.648;2023-05-10T07:05:28;4.40;;;2.47;;
51216;SDS011;37283;49.760;8.648;2023-05-10T07:07:56;3.70;;;2.60;;
51216;SDS011;37283;49.760;8.648;2023-05-10T07:10:23;2.72;;;2.40;;
51216;SDS011;37283;49.760;8.648;2023-05-10T07:12:50;4.70;;;2.45;;
51216;SDS011;37283;49.760;8.648;2023-05-10T07:15:16;3.45;;;2.50;;
51216;SDS011;37283;49.760;8.648;2023-05-10T07:17:43;3.17;;;2.20;;
51216;SDS011;37283;49.760;8.648;2023-05-10T07:20:11;4.80;;;2.20;;
51216;SDS011;37283;49.760;8.648;2023-05-10T07:22:38;3.00;;;2.10;;
51216;SDS011;37283;49.760;8.648;2023-05-10T07:25:04;3.67;;;2.13;;
51216;SDS011;37283;49.760;8.648;2023-05-10T07:27:31;5.57;;;2.10;;
51216;SDS011;37283;49.760;8.648;2023-05-10T07:29:58;3.03;;;1.90;;
51216;SDS011;37283;49.760;8.648;2023-05-10T07:32:25;3.33;;;1.80;;
51216;SDS011;37283;49.760;8.648;2023-05-10T07:34:52;3.78;;;1.80;;
51216;SDS011;37283;49.760;8.648;2023-05-10T07:37:18;2.55;;;1.52;;
51216;SDS011;37283;49.760;8.648;2023-05-10T07:39:45;2.45;;;1.45;;
51216;SDS011;37283;49.760;8.648;2023-05-10T07:42:11;4.53;;;1.98;;
51216;SDS011;37283;49.760;8.648;2023-05-10T07:44:37;2.70;;;1.60;;
51216;SDS011;37283;49.760;8.648;2023-05-10T07:47:04;2.63;;;1.60;;
51216;SDS011;37283;49.760;8.648;2023-05-10T07:49:31;2.40;;;1.40;;
51216;SDS011;37283;49.760;8.648;2023-05-10T07:51:57;2.50;;;1.40;;
51216;SDS011;37283;49.760;8.648;2023-05-10T07:54:23;2.03;;;1.20;;
51216;SDS011;37283;49.760;8.648;2023-05-10T07:56:50;2.50;;;1.30;;
51216;SDS011;37283;49.760;8.648;2023-05-10T07:59:17;3.53;;;1.50;;
51216;SDS011;37283;49.760;8.648;2023-05-10T08:01:44;2.75;;;1.95;;
51216;SDS011;37283;49.760;8.648;2023-05-10T08:04:10;9.05;;;2.28;;
51216;SDS011;37283;49.760;8.648;2023-05-10T08:06:37;4.82;;;2.20;;
51216;SDS011;37283;49.760;8.648;2023-05-10T08:09:04;2.90;;;2.50;;
51216;SDS011;37283;49.760;8.648;2023-05-10T08:11:30;4.75;;;1.98;;
51216;SDS011;37283;49.760;8.648;2023-05-10T08:16:26;2.45;;;1.80;;
51216;SDS011;37283;49.760;8.648;2023-05-10T08:18:53;7.65;;;2.15;;
51216;SDS011;37283;49.760;8.648;2023-05-10T08:21:21;5.68;;;2.05;;
51216;SDS011;37283;49.760;8.648;2023-05-10T08:23:47;3.05;;;2.05;;
51216;SDS011;37283;49.760;8.648;2023-05-10T08:26:14;2.70;;;2.20;;
51216;SDS011;37283;49.760;8.648;2023-05-10T08:28:41;5.68;;;2.10;;
51216;SDS011;37283;49.760;8.648;2023-05-10T08:31:07;4.60;;;2.08;;
51216;SDS011;37283;49.760;8.648;2023-05-10T08:33:34;2.15;;;1.58;;
51216;SDS011;37283;49.760;8.648;2023-05-10T08:36:00;3.97;;;1.88;;
51216;SDS011;37283;49.760;8.648;2023-05-10T08:38:27;4.13;;;1.60;;
51216;SDS011;37283;49.760;8.648;2023-05-10T08:40:54;3.03;;;1.70;;
51216;SDS011;37283;49.760;8.648;2023-05-10T08:43:23;3.63;;;1.70;;
51216;SDS011;37283;49.760;8.648;2023-05-10T08:45:53;3.85;;;1.67;;
51216;SDS011;37283;49.760;8.648;2023-05-10T08:48:21;2.53;;;1.67;;
51216;SDS011;37283;49.760;8.648;2023-05-10T08:50:49;4.60;;;1.70;;
51216;SDS011;37283;49.760;8.648;2023-05-10T08:53:18;2.08;;;1.50;;
51216;SDS011;37283;49.760;8.648;2023-05-10T08:55:45;2.08;;;1.10;;
51216;SDS011;37283;49.760;8.648;2023-05-10T08:58:12;3.20;;;1.27;;
51216;SDS011;37283;49.760;8.648;2023-05-10T09:00:38;2.03;;;1.40;;
51216;SDS011;37283;49.760;8.648;2023-05-10T09:03:05;2.10;;;1.13;;
51216;SDS011;37283;49.760;8.648;2023-05-10T09:05:32;3.78;;;1.30;;
51216;SDS011;37283;49.760;8.648;2023-05-10T09:07:58;3.65;;;0.90;;
51216;SDS011;37283;49.760;8.648;2023-05-10T09:10:26;3.28;;;0.88;;
51216;SDS011;37283;49.760;8.648;2023-05-10T09:12:55;1.75;;;0.82;;
51216;SDS011;37283;49.760;8.648;2023-05-10T09:15:24;1.48;;;0.85;;
51216;SDS011;37283;49.760;8.648;2023-05-10T09:17:51;1.50;;;0.70;;
51216;SDS011;37283;49.760;8.648;2023-05-10T09:20:18;1.52;;;0.60;;
51216;SDS011;37283;49.760;8.648;2023-05-10T09:22:45;0.82;;;0.70;;
51216;SDS011;37283;49.760;8.648;2023-05-10T09:25:12;1.80;;;0.70;;
51216;SDS011;37283;49.760;8.648;2023-05-10T09:27:43;1.17;;;0.75;;
51216;SDS011;37283;49.760;8.648;2023-05-10T09:30:15;1.30;;;0.77;;
51216;SDS011;37283;49.760;8.648;2023-05-10T09:32:43;2.58;;;0.88;;
51216;SDS011;37283;49.760;8.648;2023-05-10T09:35:15;1.90;;;0.80;;
51216;SDS011;37283;49.760;8.648;2023-05-10T09:37:44;3.33;;;0.80;;
51216;SDS011;37283;49.760;8.648;2023-05-10T09:42:51;1.98;;;1.13;;
51216;SDS011;37283;49.760;8.648;2023-05-10T09:45:21;1.23;;;0.70;;
51216;SDS011;37283;49.760;8.648;2023-05-10T09:47:48;1.45;;;0.70;;
51216;SDS011;37283;49.760;8.648;2023-05-10T09:50:15;1.85;;;0.60;;
51216;SDS011;37283;49.760;8.648;2023-05-10T09:58:06;2.55;;;0.80;;
51216;SDS011;37283;49.760;8.648;2023-05-10T10:00:37;2.78;;;0.70;;
51216;SDS011;37283;49.760;8.648;2023-05-10T10:03:05;2.25;;;0.77;;
51216;SDS011;37283;49.760;8.648;2023-05-10T10:05:32;2.13;;;0.70;;
51216;SDS011;37283;49.760;8.648;2023-05-10T10:08:02;3.67;;;0.68;;
51216;SDS011;37283;49.760;8.648;2023-05-10T10:10:30;1.90;;;0.80;;
51216;SDS011;37283;49.760;8.648;2023-05-10T10:12:57;1.85;;;0.70;;
51216;SDS011;37283;49.760;8.648;2023-05-10T10:15:24;0.77;;;0.60;;
51216;SDS011;37283;49.760;8.648;2023-05-10T10:17:51;2.30;;;0.70;;
51216;SDS011;37283;49.760;8.648;2023-05-10T10:20:19;0.50;;;0.50;;
51216;SDS011;37283;49.760;8.648;2023-05-10T10:22:47;2.50;;;0.60;;
51216;SDS011;37283;49.760;8.648;2023-05-10T10:25:14;1.10;;;0.60;;
51216;SDS011;37283;49.760;8.648;2023-05-10T10:27:52;1.45;;;0.70;;
51216;SDS011;37283;49.760;8.648;2023-05-10T10:30:28;1.38;;;0.60;;
51216;SDS011;37283;49.760;8.648;2023-05-10T10:33:06;2.95;;;0.52;;
51216;SDS011;37283;49.760;8.648;2023-05-10T10:35:53;2.05;;;0.80;;
51216;SDS011;37283;49.760;8.648;2023-05-10T10:38:20;1.58;;;0.70;;
51216;SDS011;37283;49.760;8.648;2023-05-10T10:40:48;2.15;;;0.80;;
51216;SDS011;37283;49.760;8.648;2023-05-10T10:43:21;1.63;;;0.90;;
51216;SDS011;37283;49.760;8.648;2023-05-10T10:48:39;2.75;;;0.80;;
51216;SDS011;37283;49.760;8.648;2023-05-10T10:51:07;2.40;;;1.27;;
51216;SDS011;37283;49.760;8.648;2023-05-10T10:58:33;3.28;;;1.27;;
51216;SDS011;37283;49.760;8.648;2023-05-10T11:01:18;3.42;;;1.10;;
51216;SDS011;37283;49.760;8.648;2023-05-10T11:04:16;1.40;;;1.02;;
51216;SDS011;37283;49.760;8.648;2023-05-10T11:06:41;2.13;;;0.88;;
51216;SDS011;37283;49.760;8.648;2023-05-10T11:09:09;2.42;;;1.02;;
51216;SDS011;37283;49.760;8.648;2023-05-10T11:11:52;2.30;;;1.05;;
51216;SDS011;37283;49.760;8.648;2023-05-10T11:14:21;1.90;;;1.08;;
51216;SDS011;37283;49.760;8.648;2023-05-10T11:16:51;1.02;;;0.70;;
51216;SDS011;37283;49.760;8.648;2023-05-10T11:19:19;1.83;;;0.95;;
51216;SDS011;37283;49.760;8.648;2023-05-10T11:21:50;3.50;;;0.90;;
51216;SDS011;37283;49.760;8.648;2023-05-10T11:24:18;0.77;;;0.50;;
51216;SDS011;37283;49.760;8.648;2023-05-10T11:26:45;3.70;;;1.02;;
51216;SDS011;37283;49.760;8.648;2023-05-10T11:29:12;1.13;;;0.60;;
51216;SDS011;37283;49.760;8.648;2023-05-10T11:31:46;1.27;;;0.68;;
51216;SDS011;37283;49.760;8.648;2023-05-10T11:34:22;1.08;;;0.50;;
51216;SDS011;37283;49.760;8.648;2023-05-10T11:36:54;2.42;;;0.60;;
51216;SDS011;37283;49.760;8.648;2023-05-10T11:39:25;1.27;;;0.73;;
51216;SDS011;37283;49.760;8.648;2023-05-10T11:41:52;1.48;;;0.70;;
51216;SDS011;37283;49.760;8.648;2023-05-10T11:44:19;0.75;;;0.43;;
51216;SDS011;37283;49.760;8.648;2023-05-10T11:46:45;1.80;;;0.80;;
51216;SDS011;37283;49.760;8.648;2023-05-10T11:49:12;1.38;;;0.60;;
51216;SDS011;37283;49.760;8.648;2023-05-10T11:51:39;1.95;;;0.80;;
51216;SDS011;37283;49.760;8.648;2023-05-10T11:54:06;1.83;;;0.90;;
51216;SDS011;37283;49.760;8.648;2023-05-10T11:56:36;1.15;;;0.77;;
51216;SDS011;37283;49.760;8.648;2023-05-10T11:59:03;1.15;;;0.73;;
51216;SDS011;37283;49.760;8.648;2023-05-10T12:01:30;0.73;;;0.50;;
51216;SDS011;37283;49.760;8.648;2023-05-10T12:03:57;1.83;;;0.90;;
51216;SDS011;37283;49.760;8.648;2023-05-10T12:06:27;1.73;;;0.80;;
51216;SDS011;37283;49.760;8.648;2023-05-10T12:08:55;1.10;;;0.70;;
51216;SDS011;37283;49.760;8.648;2023-05-10T12:11:24;2.00;;;1.00;;
51216;SDS011;37283;49.760;8.648;2023-05-10T12:13:51;2.00;;;0.82;;
51216;SDS011;37283;49.760;8.648;2023-05-10T12:16:18;3.17;;;0.82;;
51216;SDS011;37283;49.760;8.648;2023-05-10T12:18:50;1.25;;;0.70;;
51216;SDS011;37283;49.760;8.648;2023-05-10T12:21:18;2.60;;;0.90;;
51216;SDS011;37283;49.760;8.648;2023-05-10T12:23:47;1.83;;;0.90;;
51216;SDS011;37283;49.760;8.648;2023-05-10T12:26:15;5.40;;;0.80;;
51216;SDS011;37283;49.760;8.648;2023-05-10T12:28:42;3.58;;;0.75;;
51216;SDS011;37283;49.760;8.648;2023-05-10T12:31:08;1.90;;;0.80;;
51216;SDS011;37283;49.760;8.648;2023-05-10T12:33:36;1.92;;;1.05;;
51216;SDS011;37283;49.760;8.648;2023-05-10T12:36:09;2.63;;;0.70;;
51216;SDS011;37283;49.760;8.648;2023-05-10T12:38:43;2.90;;;0.70;;
51216;SDS011;37283;49.760;8.648;2023-05-10T12:41:11;3.67;;;0.90;;
51216;SDS011;37283;49.760;8.648;2023-05-10T12:43:39;2.60;;;0.93;;
51216;SDS011;37283;49.760;8.648;2023-05-10T12:46:06;1.65;;;0.75;;
51216;SDS011;37283;49.760;8.648;2023-05-10T12:48:37;1.73;;;0.70;;
51216;SDS011;37283;49.760;8.648;2023-05-10T12:51:05;2.78;;;0.90;;
51216;SDS011;37283;49.760;8.648;2023-05-10T12:53:35;6.13;;;0.90;;
51216;SDS011;37283;49.760;8.648;2023-05-10T12:56:01;2.45;;;0.60;;
51216;SDS011;37283;49.760;8.648;2023-05-10T12:58:28;1.73;;;0.70;;
51216;SDS011;37283;49.760;8.648;2023-05-10T13:01:01;2.70;;;0.80;;
51216;SDS011;37283;49.760;8.648;2023-05-10T13:03:28;3.78;;;0.90;;
51216;SDS011;37283;49.760;8.648;2023-05-10T13:05:54;2.85;;;0.90;;
51216;SDS011;37283;49.760;8.648;2023-05-10T13:08:21;2.40;;;0.88;;
51216;SDS011;37283;49.760;8.648;2023-05-10T13:10:48;1.35;;;0.90;;
51216;SDS011;37283;49.760;8.648;2023-05-10T13:13:15;4.05;;;0.95;;
51216;SDS011;37283;49.760;8.648;2023-05-10T13:15:41;3.10;;;1.17;;
51216;SDS011;37283;49.760;8.648;2023-05-10T13:18:08;5.75;;;1.27;;
51216;SDS011;37283;49.760;8.648;2023-05-10T13:20:34;5.25;;;1.17;;
51216;SDS011;37283;49.760;8.648;2023-05-10T13:23:01;4.53;;;1.00;;
51216;SDS011;37283;49.760;8.648;2023-05-10T13:25:28;3.95;;;1.08;;
51216;SDS011;37283;49.760;8.648;2023-05-10T13:27:55;2.53;;;1.20;;
51216;SDS011;37283;49.760;8.648;2023-05-10T13:30:21;3.03;;;0.93;;
51216;SDS011;37283;49.760;8.648;2023-05-10T13:32:48;3.63;;;1.13;;
51216;SDS011;37283;49.760;8.648;2023-05-10T13:35:14;4.25;;;1.17;;
51216;SDS011;37283;49.760;8.648;2023-05-10T13:37:41;1.88;;;0.70;;
51216;SDS011;37283;49.760;8.648;2023-05-10T13:40:08;2.00;;;1.13;;
51216;SDS011;37283;49.760;8.648;2023-05-10T13:42:34;1.65;;;0.85;;
51216;SDS011;37283;49.760;8.648;2023-05-10T13:45:01;8.07;;;1.10;;
51216;SDS011;37283;49.760;8.648;2023-05-10T13:47:27;5.15;;;1.15;;
51216;SDS011;37283;49.760;8.648;2023-05-10T13:49:54;5.57;;;1.30;;
51216;SDS011;37283;49.760;8.648;2023-05-10T13:52:21;2.88;;;1.13;;
51216;SDS011;37283;49.760;8.648;2023-05-10T13:54:47;4.80;;;1.00;;
51216;SDS011;37283;49.760;8.648;2023-05-10T13:57:14;9.40;;;1.75;;
51216;SDS011;37283;49.760;8.648;2023-05-10T13:59:42;36.40;;;4.23;;
51216;SDS011;37283;49.760;8.648;2023-05-10T14:02:09;5.57;;;1.27;;
51216;SDS011;37283;49.760;8.648;2023-05-10T14:04:36;3.80;;;1.00;;
51216;SDS011;37283;49.760;8.648;2023-05-10T14:07:03;5.10;;;0.90;;
51216;SDS011;37283;49.760;8.648;2023-05-10T14:09:30;3.40;;;0.98;;
51216;SDS011;37283;49.760;8.648;2023-05-10T14:11:57;2.40;;;0.90;;
51216;SDS011;37283;49.760;8.648;2023-05-10T14:14:24;2.95;;;0.80;;
51216;SDS011;37283;49.760;8.648;2023-05-10T14:16:51;3.75;;;0.90;;
51216;SDS011;37283;49.760;8.648;2023-05-10T14:19:18;5.15;;;0.85;;
51216;SDS011;37283;49.760;8.648;2023-05-10T14:21:44;3.80;;;0.65;;
51216;SDS011;37283;49.760;8.648;2023-05-10T14:24:11;4.07;;;0.90;;
51216;SDS011;37283;49.760;8.648;2023-05-10T14:26:38;3.17;;;0.88;;
51216;SDS011;37283;49.760;8.648;2023-05-10T14:29:04;4.03;;;1.33;;
51216;SDS011;37283;49.760;8.648;2023-05-10T14:31:31;3.08;;;0.80;;
51216;SDS011;37283;49.760;8.648;2023-05-10T14:33:57;5.22;;;1.00;;
51216;SDS011;37283;49.760;8.648;2023-05-10T14:36:25;4.05;;;1.00;;
51216;SDS011;37283;49.760;8.648;2023-05-10T14:38:51;5.75;;;1.00;;
51216;SDS011;37283;49.760;8.648;2023-05-10T14:41:18;2.10;;;1.10;;
51216;SDS011;37283;49.760;8.648;2023-05-10T14:43:44;3.90;;;1.30;;
51216;SDS011;37283;49.760;8.648;2023-05-10T14:46:11;5.00;;;0.95;;
51216;SDS011;37283;49.760;8.648;2023-05-10T14:48:38;5.18;;;1.10;;
51216;SDS011;37283;49.760;8.648;2023-05-10T14:51:04;3.28;;;1.00;;
51216;SDS011;37283;49.760;8.648;2023-05-10T14:53:30;3.53;;;1.00;;
51216;SDS011;37283;49.760;8.648;2023-05-10T14:55:57;4.75;;;1.08;;
51216;SDS011;37283;49.760;8.648;2023-05-10T14:58:24;3.55;;;1.00;;
51216;SDS011;37283;49.760;8.648;2023-05-10T15:00:50;4.13;;;0.80;;
51216;SDS011;37283;49.760;8.648;2023-05-10T15:03:17;6.43;;;1.02;;
51216;SDS011;37283;49.760;8.648;2023-05-10T15:05:44;3.90;;;1.13;;
51216;SDS011;37283;49.760;8.648;2023-05-10T15:08:11;4.47;;;1.30;;
51216;SDS011;37283;49.760;8.648;2023-05-10T15:10:38;4.97;;;1.10;;
51216;SDS011;37283;49.760;8.648;2023-05-10T15:13:05;3.20;;;0.80;;
51216;SDS011;37283;49.760;8.648;2023-05-10T15:15:32;3.13;;;0.93;;
51216;SDS011;37283;49.760;8.648;2023-05-10T15:17:58;2.88;;;0.80;;
51216;SDS011;37283;49.760;8.648;2023-05-10T15:20:25;4.75;;;1.02;;
51216;SDS011;37283;49.760;8.648;2023-05-10T15:22:51;3.45;;;0.70;;
51216;SDS011;37283;49.760;8.648;2023-05-10T15:25:18;2.05;;;0.75;;
51216;SDS011;37283;49.760;8.648;2023-05-10T15:27:44;1.60;;;0.63;;
51216;SDS011;37283;49.760;8.648;2023-05-10T15:30:11;3.65;;;0.80;;
51216;SDS011;37283;49.760;8.648;2023-05-10T15:32:38;2.10;;;0.70;;